createdAt,value
2019-03-16T00:02:46.317Z,61.20
2019-03-16T00:05:47.655Z,61.10
2019-03-16T00:08:49.058Z,61.20
2019-03-16T00:11:50.480Z,61.10
2019-03-16T00:14:51.798Z,61.00
2019-03-16T00:17:53.126Z,61.00
2019-03-16T00:20:54.437Z,61.20
2019-03-16T00:23:55.842Z,61.10
2019-03-16T00:26:57.165Z,61.20
2019-03-16T00:29:58.531Z,61.20
2019-03-16T00:32:59.867Z,61.20
2019-03-16T00:36:01.206Z,61.20
2019-03-16T00:39:02.555Z,61.90
2019-03-16T00:42:04.331Z,61.30
2019-03-16T00:45:05.826Z,61.30
2019-03-16T00:48:07.236Z,62.00
2019-03-16T00:51:08.563Z,61.30
2019-03-16T00:54:09.908Z,61.20
2019-03-16T00:57:11.257Z,61.30
2019-03-16T01:00:12.974Z,61.20
2019-03-16T01:03:14.356Z,61.40
2019-03-16T01:06:15.668Z,61.30
2019-03-16T01:09:16.994Z,61.40
2019-03-16T01:12:18.420Z,61.40
2019-03-16T01:15:19.878Z,61.40
2019-03-16T01:18:21.276Z,61.90
2019-03-16T01:21:22.695Z,61.40
2019-03-16T01:24:24.023Z,61.30
2019-03-16T01:27:25.414Z,61.30
2019-03-16T01:30:26.865Z,61.30
2019-03-16T01:33:28.229Z,61.30
2019-03-16T01:36:29.618Z,61.30
2019-03-16T01:39:30.977Z,61.40
2019-03-16T01:42:32.347Z,61.40
2019-03-16T01:45:33.693Z,61.40
2019-03-16T01:48:35.074Z,61.40
2019-03-16T01:51:36.463Z,61.40
2019-03-16T01:54:37.881Z,61.40
2019-03-16T01:57:39.263Z,61.40
2019-03-16T02:00:40.711Z,61.30
2019-03-16T02:03:42.097Z,61.40
2019-03-16T02:06:43.466Z,61.30
2019-03-16T02:09:44.843Z,61.30
2019-03-16T02:12:46.306Z,61.40
2019-03-16T02:15:47.678Z,61.30
2019-03-16T02:18:49.368Z,61.40
2019-03-16T02:21:50.801Z,61.30
2019-03-16T02:24:52.196Z,61.30
2019-03-16T02:27:53.596Z,61.30
2019-03-16T02:30:55.039Z,61.30
2019-03-16T02:33:56.453Z,61.80
2019-03-16T02:36:57.810Z,61.40
2019-03-16T02:39:59.203Z,61.50
2019-03-16T02:43:00.626Z,61.40
2019-03-16T02:46:02.064Z,61.20
2019-03-16T02:49:03.469Z,61.30
2019-03-16T02:52:04.881Z,61.20
2019-03-16T02:55:06.760Z,62.10
2019-03-16T02:58:08.175Z,61.20
2019-03-16T03:01:09.603Z,61.20
2019-03-16T03:04:10.968Z,61.30
2019-03-16T03:07:12.355Z,61.40
2019-03-16T03:10:14.241Z,61.30
2019-03-16T03:13:15.620Z,61.30
2019-03-16T03:16:17.855Z,61.40
2019-03-16T03:19:19.302Z,61.50
2019-03-16T03:22:20.706Z,61.20
2019-03-16T03:25:22.090Z,61.20
2019-03-16T03:28:23.544Z,61.30
2019-03-16T03:31:24.904Z,61.30
2019-03-16T03:34:26.279Z,61.40
2019-03-16T03:37:27.721Z,61.50
2019-03-16T03:40:29.086Z,61.20
2019-03-16T03:43:30.529Z,61.30
2019-03-16T03:46:32.695Z,61.40
2019-03-16T03:49:34.307Z,61.30
2019-03-16T03:52:35.676Z,62.10
2019-03-16T03:55:37.061Z,61.50
2019-03-16T03:58:38.440Z,61.40
2019-03-16T04:01:39.827Z,61.50
2019-03-16T04:04:41.398Z,61.50
2019-03-16T04:07:42.819Z,61.50
2019-03-16T04:10:44.270Z,61.50
2019-03-16T04:13:45.675Z,61.50
2019-03-16T04:16:47.086Z,61.60
2019-03-16T04:19:48.470Z,62.40
2019-03-16T04:22:49.847Z,61.60
2019-03-16T04:25:51.252Z,61.60
2019-03-16T04:28:52.629Z,61.40
2019-03-16T04:31:54.005Z,61.70
2019-03-16T04:34:55.405Z,61.80
2019-03-16T04:37:56.793Z,61.80
2019-03-16T04:40:58.145Z,61.70
2019-03-16T04:43:59.548Z,61.60
2019-03-16T04:47:00.919Z,61.60
2019-03-16T04:50:02.259Z,62.30
2019-03-16T04:53:03.717Z,61.80
2019-03-16T04:56:05.085Z,61.80
2019-03-16T04:59:06.511Z,61.80
2019-03-16T05:02:07.862Z,61.70
2019-03-16T05:05:09.259Z,61.80
2019-03-16T05:08:10.653Z,61.70
2019-03-16T05:11:12.020Z,61.70
2019-03-16T05:14:13.416Z,61.70
2019-03-16T05:17:14.837Z,61.70
2019-03-16T05:20:16.222Z,61.60
2019-03-16T05:23:17.602Z,61.70
2019-03-16T05:26:18.975Z,61.80
2019-03-16T05:29:20.572Z,61.70
2019-03-16T05:32:21.961Z,61.80
2019-03-16T05:35:23.336Z,61.80
2019-03-16T05:38:24.701Z,61.60
2019-03-16T05:41:26.079Z,61.80
2019-03-16T05:44:27.467Z,61.70
2019-03-16T05:47:28.839Z,61.70
2019-03-16T05:50:30.200Z,61.80
2019-03-16T05:53:31.575Z,61.60
2019-03-16T05:56:32.973Z,61.70
2019-03-16T05:59:34.314Z,61.70
2019-03-16T06:02:35.702Z,61.60
2019-03-16T06:05:37.150Z,61.70
2019-03-16T06:08:38.504Z,61.70
2019-03-16T06:11:39.951Z,61.70
2019-03-16T06:14:41.332Z,61.60
2019-03-16T06:17:42.706Z,61.70
2019-03-16T06:20:44.094Z,61.60
2019-03-16T06:23:45.491Z,61.50
2019-03-16T06:26:46.829Z,61.50
2019-03-16T06:29:48.236Z,61.60
2019-03-16T06:32:49.612Z,61.40
2019-03-16T06:35:50.985Z,61.60
2019-03-16T06:38:52.397Z,61.40
2019-03-16T06:41:53.787Z,62.10
2019-03-16T06:44:55.140Z,61.40
2019-03-16T06:47:56.528Z,61.20
2019-03-16T06:50:57.864Z,61.20
2019-03-16T06:53:59.239Z,61.20
2019-03-16T06:57:00.645Z,61.20
2019-03-16T07:00:02.029Z,61.20
2019-03-16T07:03:03.492Z,61.10
2019-03-16T07:06:04.867Z,61.10
2019-03-16T07:09:09.204Z,61.20
2019-03-16T07:12:10.634Z,61.10
2019-03-16T07:15:12.150Z,61.10
2019-03-16T07:18:13.535Z,61.10
2019-03-16T07:21:14.917Z,61.10
2019-03-16T07:24:16.312Z,61.10
2019-03-16T07:27:26.066Z,60.90
2019-03-16T07:30:20.778Z,61.00
2019-03-16T07:33:22.170Z,60.90
2019-03-16T07:36:23.541Z,60.90
2019-03-16T07:39:24.929Z,60.70
2019-03-16T07:42:26.328Z,60.80
2019-03-16T07:45:27.704Z,60.90
2019-03-16T07:48:29.090Z,60.80
2019-03-16T07:51:30.525Z,61.40
2019-03-16T07:54:34.298Z,61.00
2019-03-16T07:57:40.437Z,61.00
2019-03-16T08:00:38.763Z,60.90
2019-03-16T08:03:40.127Z,60.80
2019-03-16T08:06:41.530Z,60.80
2019-03-16T08:09:42.903Z,60.80
2019-03-16T08:12:44.358Z,60.70
2019-03-16T08:15:45.720Z,61.00
2019-03-16T08:18:47.087Z,61.00
2019-03-16T08:21:48.428Z,60.70
2019-03-16T08:24:49.799Z,60.70
2019-03-16T08:27:54.469Z,60.70
2019-03-16T08:30:56.722Z,60.80
2019-03-16T08:33:57.372Z,60.80
2019-03-16T08:36:58.758Z,60.70
2019-03-16T08:40:00.212Z,60.70
2019-03-16T08:43:01.572Z,60.60
2019-03-16T08:46:02.998Z,60.60
2019-03-16T08:49:04.372Z,60.60
2019-03-16T08:52:05.777Z,60.60
2019-03-16T08:55:08.258Z,60.80
2019-03-16T08:58:09.713Z,60.70
2019-03-16T09:01:11.120Z,60.70
2019-03-16T09:04:12.491Z,60.60
2019-03-16T09:07:14.932Z,60.80
2019-03-16T09:10:16.288Z,60.80
2019-03-16T09:13:17.718Z,60.80
2019-03-16T09:16:19.134Z,60.60
2019-03-16T09:19:20.595Z,60.60
2019-03-16T09:22:22.006Z,60.60
2019-03-16T09:25:23.408Z,60.60
2019-03-16T09:28:24.830Z,60.40
2019-03-16T09:31:26.207Z,60.40
2019-03-16T09:34:27.588Z,60.40
2019-03-16T09:37:28.965Z,60.20
2019-03-16T09:40:30.332Z,60.00
2019-03-16T09:43:31.720Z,59.50
2019-03-16T09:46:33.109Z,59.30
2019-03-16T09:49:34.564Z,59.70
2019-03-16T09:52:35.989Z,59.90
2019-03-16T09:55:37.371Z,59.00
2019-03-16T09:58:38.766Z,58.80
2019-03-16T10:01:40.145Z,58.80
2019-03-16T10:04:41.603Z,59.00
2019-03-16T10:07:43.060Z,58.90
2019-03-16T10:10:44.446Z,59.10
2019-03-16T10:13:45.831Z,59.40
2019-03-16T10:16:47.279Z,59.60
2019-03-16T10:19:48.807Z,59.50
2019-03-16T10:22:50.305Z,59.70
2019-03-16T10:25:51.732Z,59.80
2019-03-16T10:28:53.153Z,59.90
2019-03-16T10:31:54.561Z,60.00
2019-03-16T10:34:55.977Z,60.00
2019-03-16T10:37:57.375Z,60.00
2019-03-16T10:40:58.818Z,60.00
2019-03-16T10:44:00.199Z,60.00
2019-03-16T10:47:01.617Z,59.90
2019-03-16T10:50:04.170Z,59.80
2019-03-16T10:53:05.614Z,59.70
2019-03-16T10:56:07.048Z,59.50
2019-03-16T10:59:08.497Z,59.40
2019-03-16T11:02:09.903Z,59.30
2019-03-16T11:05:13.573Z,59.40
2019-03-16T11:08:15.109Z,59.30
2019-03-16T11:11:16.621Z,59.20
2019-03-16T11:14:18.033Z,59.10
2019-03-16T11:17:20.583Z,59.00
2019-03-16T11:20:21.973Z,59.00
2019-03-16T11:23:23.374Z,59.00
2019-03-16T11:26:24.780Z,59.10
2019-03-16T11:29:26.175Z,58.80
2019-03-16T11:32:27.540Z,58.70
2019-03-16T11:35:28.895Z,58.50
2019-03-16T11:38:30.288Z,58.60
2019-03-16T11:41:31.674Z,58.70
2019-03-16T11:44:33.089Z,59.10
2019-03-16T11:47:34.455Z,58.60
2019-03-16T11:50:35.833Z,59.20
2019-03-16T11:53:37.236Z,58.60
2019-03-16T11:56:38.730Z,58.50
2019-03-16T11:59:40.199Z,58.40
2019-03-16T12:02:41.575Z,58.10
2019-03-16T12:05:42.955Z,58.00
2019-03-16T12:08:44.331Z,58.00
2019-03-16T12:11:45.718Z,57.90
2019-03-16T12:14:47.085Z,57.80
2019-03-16T12:17:48.494Z,57.70
2019-03-16T12:20:49.878Z,57.70
2019-03-16T12:23:51.279Z,57.50
2019-03-16T12:26:52.674Z,57.50
2019-03-16T12:29:54.047Z,57.40
2019-03-16T12:32:55.425Z,57.30
2019-03-16T12:35:56.858Z,57.10
2019-03-16T12:38:58.294Z,57.30
2019-03-16T12:41:59.860Z,57.20
2019-03-16T12:45:01.251Z,57.20
2019-03-16T12:48:03.809Z,56.90
2019-03-16T12:51:05.216Z,56.80
2019-03-16T12:54:06.605Z,56.70
2019-03-16T12:57:07.997Z,56.70
2019-03-16T13:00:12.064Z,56.60
2019-03-16T13:03:13.524Z,56.70
2019-03-16T13:06:14.933Z,56.50
2019-03-16T13:09:16.363Z,56.30
2019-03-16T13:12:17.760Z,56.40
2019-03-16T13:15:19.216Z,56.40
2019-03-16T13:18:20.590Z,56.30
2019-03-16T13:21:21.999Z,56.30
2019-03-16T13:24:23.461Z,56.50
2019-03-16T13:27:24.853Z,56.70
2019-03-16T13:30:26.250Z,56.70
2019-03-16T13:33:27.656Z,56.50
2019-03-16T13:36:29.067Z,56.30
2019-03-16T13:39:30.468Z,56.40
2019-03-16T13:42:31.915Z,56.40
2019-03-16T13:45:33.322Z,56.40
2019-03-16T13:48:34.722Z,56.80
2019-03-16T13:51:36.143Z,56.30
2019-03-16T13:54:37.593Z,56.30
2019-03-16T13:57:39.013Z,56.10
2019-03-16T14:00:40.690Z,56.00
2019-03-16T14:03:42.340Z,56.00
2019-03-16T14:06:44.059Z,55.90
2019-03-16T14:09:45.636Z,55.80
2019-03-16T14:12:47.067Z,56.30
2019-03-16T14:15:48.511Z,55.50
2019-03-16T14:18:49.995Z,55.40
2019-03-16T14:21:51.387Z,55.30
2019-03-16T14:24:52.979Z,55.20
2019-03-16T14:27:54.367Z,55.00
2019-03-16T14:30:55.814Z,55.00
2019-03-16T14:33:57.291Z,54.20
2019-03-16T14:36:58.818Z,51.60
2019-03-16T14:40:00.391Z,49.10
2019-03-16T14:43:01.834Z,48.50
2019-03-16T14:46:03.629Z,48.30
2019-03-16T14:49:05.296Z,47.50
2019-03-16T14:52:06.773Z,47.40
2019-03-16T14:55:08.243Z,46.90
2019-03-16T14:58:09.804Z,46.80
2019-03-16T15:01:13.219Z,46.10
2019-03-16T15:04:14.481Z,45.60
2019-03-16T15:07:15.948Z,44.80
2019-03-16T15:10:17.528Z,44.20
2019-03-16T15:13:18.962Z,44.00
2019-03-16T15:16:20.401Z,44.00
2019-03-16T15:19:21.911Z,43.70
2019-03-16T15:22:23.363Z,43.00
2019-03-16T15:25:24.834Z,42.90
2019-03-16T15:28:26.259Z,42.30
2019-03-16T15:31:27.701Z,42.00
2019-03-16T15:34:29.153Z,42.20
2019-03-16T15:37:30.591Z,42.00
2019-03-16T15:40:32.024Z,42.50
2019-03-16T15:43:33.464Z,42.00
2019-03-16T15:49:35.888Z,41.10
2019-03-16T15:52:37.831Z,41.40
2019-03-16T15:55:39.357Z,41.30
2019-03-16T15:58:40.833Z,41.10
2019-03-16T16:01:42.253Z,40.70
2019-03-16T16:04:43.688Z,40.40
2019-03-16T16:07:45.265Z,38.40
2019-03-16T16:10:59.696Z,36.70
2019-03-16T16:13:49.836Z,35.80
2019-03-16T16:16:51.277Z,34.90
2019-03-16T16:19:52.704Z,34.30
2019-03-16T16:22:54.166Z,34.10
2019-03-16T16:25:55.632Z,33.60
2019-03-16T16:28:57.081Z,33.60
2019-03-16T16:31:58.544Z,33.40
2019-03-16T16:34:59.973Z,33.20
2019-03-16T16:38:01.397Z,32.90
2019-03-16T16:41:02.841Z,32.80
2019-03-16T16:44:04.276Z,32.70
2019-03-16T16:47:05.734Z,32.50
2019-03-16T16:50:09.943Z,32.70
2019-03-16T16:53:11.402Z,29.90
2019-03-16T16:56:12.824Z,30.00
2019-03-16T16:59:14.306Z,28.00
2019-03-16T17:02:15.769Z,28.20
2019-03-16T17:05:17.309Z,28.60
2019-03-16T17:08:18.838Z,28.80
2019-03-16T17:11:20.339Z,29.80
2019-03-16T17:14:21.860Z,30.60
2019-03-16T17:17:34.559Z,31.10
2019-03-16T17:20:26.431Z,32.50
2019-03-16T17:23:27.844Z,32.50
2019-03-16T17:26:29.288Z,32.90
2019-03-16T17:29:30.735Z,33.60
2019-03-16T17:32:32.185Z,34.10
2019-03-16T17:35:33.615Z,35.30
2019-03-16T17:38:35.053Z,36.30
2019-03-16T17:41:36.507Z,36.70
2019-03-16T17:44:38.064Z,37.00
2019-03-16T17:47:39.462Z,37.50
2019-03-16T17:50:42.010Z,37.90
2019-03-16T17:53:43.525Z,38.10
2019-03-16T17:56:45.008Z,38.60
2019-03-16T17:59:46.415Z,38.90
2019-03-16T18:02:51.756Z,39.30
2019-03-16T18:05:51.121Z,39.70
2019-03-16T18:08:52.565Z,40.00
2019-03-16T18:11:53.988Z,40.20
2019-03-16T18:14:55.441Z,40.40
2019-03-16T18:17:56.904Z,41.30
2019-03-16T18:20:58.372Z,41.00
2019-03-16T18:23:59.799Z,41.20
2019-03-16T18:27:01.303Z,41.60
2019-03-16T18:30:02.830Z,41.80
2019-03-16T18:33:04.530Z,42.00
2019-03-16T18:36:06.073Z,42.20
2019-03-16T18:39:08.458Z,42.50
2019-03-16T18:42:09.887Z,42.70
2019-03-16T18:45:14.192Z,42.60
2019-03-16T18:48:15.647Z,42.80
2019-03-16T18:51:17.061Z,43.20
2019-03-16T18:54:18.536Z,43.50
2019-03-16T18:57:20.005Z,43.50
2019-03-16T19:00:21.540Z,43.50
2019-03-16T19:03:23.062Z,43.60
2019-03-16T19:06:24.559Z,43.80
2019-03-16T19:09:26.016Z,44.10
2019-03-16T19:12:27.454Z,44.20
2019-03-16T19:15:28.936Z,44.20
2019-03-16T19:18:30.351Z,44.50
2019-03-16T19:21:31.762Z,44.50
2019-03-16T19:24:35.012Z,44.60
2019-03-16T19:27:36.465Z,44.70
2019-03-16T19:30:37.872Z,44.90
2019-03-16T19:33:39.368Z,45.00
2019-03-16T19:36:40.887Z,45.20
2019-03-16T19:39:42.398Z,45.30
2019-03-16T19:42:46.572Z,45.40
2019-03-16T19:45:47.022Z,45.40
2019-03-16T19:48:48.532Z,45.60
2019-03-16T19:51:49.990Z,45.60
2019-03-16T19:54:51.384Z,45.60
2019-03-16T19:57:52.902Z,45.60
2019-03-16T20:00:54.430Z,45.80
2019-03-16T20:04:04.680Z,45.90
2019-03-16T20:07:18.450Z,46.20
2019-03-16T20:10:13.103Z,46.30
2019-03-16T20:13:14.597Z,46.60
2019-03-16T20:16:16.057Z,46.80
2019-03-16T20:19:17.484Z,46.90
2019-03-16T20:22:18.942Z,46.90
2019-03-16T20:25:21.520Z,47.00
2019-03-16T20:28:22.965Z,47.10
2019-03-16T20:34:26.520Z,47.00
2019-03-16T20:37:27.960Z,47.50
2019-03-16T20:40:29.397Z,47.50
2019-03-16T20:43:30.913Z,47.70
2019-03-16T20:46:32.387Z,47.80
2019-03-16T20:49:33.905Z,47.90
2019-03-16T20:52:35.346Z,48.00
2019-03-16T20:55:36.806Z,48.00
2019-03-16T20:58:38.283Z,48.20
2019-03-16T21:01:40.705Z,48.70
2019-03-16T21:04:42.157Z,48.40
2019-03-16T21:07:43.614Z,48.40
2019-03-16T21:10:45.023Z,48.50
2019-03-16T21:13:46.472Z,48.60
2019-03-16T21:16:48.101Z,48.70
2019-03-16T21:19:49.515Z,48.80
2019-03-16T21:22:50.960Z,48.80
2019-03-16T21:25:52.573Z,48.80
2019-03-16T21:28:53.988Z,49.10
2019-03-16T21:31:55.438Z,49.10
2019-03-16T21:34:56.956Z,49.20
2019-03-16T21:37:58.403Z,49.30
2019-03-16T21:40:59.955Z,49.40
2019-03-16T21:44:01.463Z,49.50
2019-03-16T21:47:02.945Z,49.60
2019-03-16T21:50:04.778Z,49.50
2019-03-16T21:53:07.388Z,49.50
2019-03-16T21:56:08.808Z,50.20
2019-03-16T21:59:10.283Z,49.70
2019-03-16T22:02:11.716Z,49.20
2019-03-16T22:05:13.663Z,49.70
2019-03-16T22:08:15.108Z,49.70
2019-03-16T22:11:16.566Z,49.70
2019-03-16T22:14:18.105Z,49.70
2019-03-16T22:17:19.542Z,49.70
2019-03-16T22:20:21.041Z,49.60
2019-03-16T22:23:22.447Z,49.90
2019-03-16T22:26:23.869Z,49.70
2019-03-16T22:29:25.282Z,49.90
2019-03-16T22:32:26.732Z,49.70
2019-03-16T22:35:28.190Z,49.80
2019-03-16T22:38:29.624Z,49.80
2019-03-16T22:41:31.031Z,49.80
2019-03-16T22:44:32.471Z,49.80
2019-03-16T22:47:34.060Z,49.80
2019-03-16T22:50:35.529Z,49.70
2019-03-16T22:53:37.017Z,49.70
2019-03-16T22:56:38.442Z,49.90
2019-03-16T22:59:40.976Z,49.70
2019-03-16T23:02:42.657Z,49.80
2019-03-16T23:05:44.183Z,49.80
2019-03-16T23:08:45.783Z,49.80
2019-03-16T23:11:47.288Z,49.80
2019-03-16T23:14:48.757Z,49.70
2019-03-16T23:17:52.731Z,49.60
2019-03-16T23:20:53.284Z,49.70
2019-03-16T23:23:54.656Z,49.90
2019-03-16T23:26:56.155Z,49.70
2019-03-16T23:29:57.764Z,49.80
2019-03-16T23:32:59.196Z,49.80
2019-03-16T23:36:02.908Z,49.70
2019-03-16T23:39:04.972Z,49.80
2019-03-16T23:42:06.463Z,49.70
2019-03-16T23:45:08.802Z,49.60
2019-03-16T23:48:10.222Z,49.60
2019-03-16T23:51:11.612Z,49.60
2019-03-16T23:54:13.031Z,49.60
2019-03-16T23:57:14.481Z,49.60
